EmailTwitter


Observations de surface / Royaume-Uni / EGLL (03772)

Régions: Québec | Canada | États-Unis | Europe | France | UK | Ailleurs
Station
Affichage
Infos & localisation pour EGLL (03772) | Aide pour décoder les METARs

Observations prises le 2019-03-18 à 15H50 UTC à LONDON/HEATHROW, UK (EGLL)

Température: 10.0 Celsius

Point de rosée: 3.0 Celsius

Humidité relative: 62%

Facteur vent: 8.

Vents: Ouest-nord-ouest à 17 km/h ou 9 noeuds.

Pression au niveau moyen de la mer: 102.10 kilopascals.

Visibilité horizontale: 6.21 milles terrestres ou 9.94 kilomètres.

Observation METAR:

EGLL 181550Z AUTO 29009KT 9999 NCD 10/03 Q1021=